sensor_id;sensor_type;location;lat;lon;timestamp;pressure;altitude;pressure_sealevel;temperature
56286;BMP180;42191;47.562;9.686;2022-12-18T00:03:41;97718.00;;;-1.50
56286;BMP180;42191;47.562;9.686;2022-12-18T00:06:08;97715.00;;;-1.50
56286;BMP180;42191;47.562;9.686;2022-12-18T00:08:35;97721.00;;;-1.50
56286;BMP180;42191;47.562;9.686;2022-12-18T00:11:08;97732.00;;;-1.50
56286;BMP180;42191;47.562;9.686;2022-12-18T00:13:36;97742.00;;;-1.50
56286;BMP180;42191;47.562;9.686;2022-12-18T00:16:04;97740.00;;;-1.50
56286;BMP180;42191;47.562;9.686;2022-12-18T00:18:31;97742.00;;;-1.50
56286;BMP180;42191;47.562;9.686;2022-12-18T00:21:03;97743.00;;;-1.50
56286;BMP180;42191;47.562;9.686;2022-12-18T00:23:30;97751.00;;;-1.50
56286;BMP180;42191;47.562;9.686;2022-12-18T00:26:01;97754.00;;;-1.40
56286;BMP180;42191;47.562;9.686;2022-12-18T00:28:28;97738.00;;;-1.40
56286;BMP180;42191;47.562;9.686;2022-12-18T00:31:05;97749.00;;;-1.30
56286;BMP180;42191;47.562;9.686;2022-12-18T00:33:32;97745.00;;;-1.30
56286;BMP180;42191;47.562;9.686;2022-12-18T00:36:16;97755.00;;;-1.30
56286;BMP180;42191;47.562;9.686;2022-12-18T00:38:44;97757.00;;;-1.20
56286;BMP180;42191;47.562;9.686;2022-12-18T00:41:11;97749.00;;;-1.10
56286;BMP180;42191;47.562;9.686;2022-12-18T00:43:39;97760.00;;;-1.10
56286;BMP180;42191;47.562;9.686;2022-12-18T00:46:05;97758.00;;;-1.00
56286;BMP180;42191;47.562;9.686;2022-12-18T00:48:32;97761.00;;;-1.00
56286;BMP180;42191;47.562;9.686;2022-12-18T00:50:58;97767.00;;;-1.00
56286;BMP180;42191;47.562;9.686;2022-12-18T00:53:24;97771.00;;;-0.90
56286;BMP180;42191;47.562;9.686;2022-12-18T00:55:50;97757.00;;;-0.90
56286;BMP180;42191;47.562;9.686;2022-12-18T00:58:17;97762.00;;;-0.80
56286;BMP180;42191;47.562;9.686;2022-12-18T01:00:43;97768.00;;;-0.80
56286;BMP180;42191;47.562;9.686;2022-12-18T01:03:11;97777.00;;;-0.80
56286;BMP180;42191;47.562;9.686;2022-12-18T01:05:40;97784.00;;;-0.70
56286;BMP180;42191;47.562;9.686;2022-12-18T01:08:06;97778.00;;;-0.70
56286;BMP180;42191;47.562;9.686;2022-12-18T01:10:33;97793.00;;;-0.60
56286;BMP180;42191;47.562;9.686;2022-12-18T01:12:59;97790.00;;;-0.50
56286;BMP180;42191;47.562;9.686;2022-12-18T01:15:25;97781.00;;;-0.50
56286;BMP180;42191;47.562;9.686;2022-12-18T01:17:53;97787.00;;;-0.40
56286;BMP180;42191;47.562;9.686;2022-12-18T01:20:19;97775.00;;;-0.40
56286;BMP180;42191;47.562;9.686;2022-12-18T01:22:45;97793.00;;;-0.30
56286;BMP180;42191;47.562;9.686;2022-12-18T01:25:11;97798.00;;;-0.30
56286;BMP180;42191;47.562;9.686;2022-12-18T01:27:37;97789.00;;;-0.20
56286;BMP180;42191;47.562;9.686;2022-12-18T01:30:04;97799.00;;;-0.20
56286;BMP180;42191;47.562;9.686;2022-12-18T01:32:31;97798.00;;;-0.20
56286;BMP180;42191;47.562;9.686;2022-12-18T01:34:58;97801.00;;;-0.10
56286;BMP180;42191;47.562;9.686;2022-12-18T01:37:25;97812.00;;;-0.10
56286;BMP180;42191;47.562;9.686;2022-12-18T01:39:52;97798.00;;;-0.10
56286;BMP180;42191;47.562;9.686;2022-12-18T01:42:20;97799.00;;;0.00
56286;BMP180;42191;47.562;9.686;2022-12-18T01:45:03;97802.00;;;0.00
56286;BMP180;42191;47.562;9.686;2022-12-18T01:49:58;97808.00;;;0.00
56286;BMP180;42191;47.562;9.686;2022-12-18T01:52:28;97810.00;;;0.10
56286;BMP180;42191;47.562;9.686;2022-12-18T01:54:56;97818.00;;;0.10
56286;BMP180;42191;47.562;9.686;2022-12-18T01:57:23;97819.00;;;0.20
56286;BMP180;42191;47.562;9.686;2022-12-18T01:59:53;97807.00;;;0.20
56286;BMP180;42191;47.562;9.686;2022-12-18T02:02:21;97808.00;;;0.20
56286;BMP180;42191;47.562;9.686;2022-12-18T02:04:48;97812.00;;;0.30
56286;BMP180;42191;47.562;9.686;2022-12-18T02:11:16;97799.00;;;0.40
56286;BMP180;42191;47.562;9.686;2022-12-18T02:13:27;97796.00;;;0.40
56286;BMP180;42191;47.562;9.686;2022-12-18T02:16:04;97800.00;;;0.40
56286;BMP180;42191;47.562;9.686;2022-12-18T02:18:38;97804.00;;;0.50
56286;BMP180;42191;47.562;9.686;2022-12-18T02:21:34;97813.00;;;0.50
56286;BMP180;42191;47.562;9.686;2022-12-18T02:27:01;97810.00;;;0.50
56286;BMP180;42191;47.562;9.686;2022-12-18T02:29:52;97813.00;;;0.60
56286;BMP180;42191;47.562;9.686;2022-12-18T02:32:25;97818.00;;;0.60
56286;BMP180;42191;47.562;9.686;2022-12-18T02:34:55;97815.00;;;0.60
56286;BMP180;42191;47.562;9.686;2022-12-18T02:37:23;97819.00;;;0.70
56286;BMP180;42191;47.562;9.686;2022-12-18T02:39:52;97819.00;;;0.70
56286;BMP180;42191;47.562;9.686;2022-12-18T02:42:19;97819.00;;;0.80
56286;BMP180;42191;47.562;9.686;2022-12-18T02:44:47;97791.00;;;0.80
56286;BMP180;42191;47.562;9.686;2022-12-18T02:47:16;97801.00;;;0.80
56286;BMP180;42191;47.562;9.686;2022-12-18T02:50:07;97816.00;;;0.80
56286;BMP180;42191;47.562;9.686;2022-12-18T03:03:56;97806.00;;;0.90
56286;BMP180;42191;47.562;9.686;2022-12-18T03:06:37;97816.00;;;0.90
56286;BMP180;42191;47.562;9.686;2022-12-18T03:09:15;97806.00;;;0.90
56286;BMP180;42191;47.562;9.686;2022-12-18T03:11:46;97817.00;;;0.90
56286;BMP180;42191;47.562;9.686;2022-12-18T03:14:34;97806.00;;;0.90
56286;BMP180;42191;47.562;9.686;2022-12-18T03:17:05;97807.00;;;0.90
56286;BMP180;42191;47.562;9.686;2022-12-18T03:19:33;97819.00;;;1.00
56286;BMP180;42191;47.562;9.686;2022-12-18T03:22:03;97812.00;;;1.00
56286;BMP180;42191;47.562;9.686;2022-12-18T03:24:32;97820.00;;;1.00
56286;BMP180;42191;47.562;9.686;2022-12-18T03:27:04;97815.00;;;1.00
56286;BMP180;42191;47.562;9.686;2022-12-18T03:29:38;97817.00;;;1.00
56286;BMP180;42191;47.562;9.686;2022-12-18T03:32:15;97829.00;;;1.00
56286;BMP180;42191;47.562;9.686;2022-12-18T03:34:42;97838.00;;;1.00
56286;BMP180;42191;47.562;9.686;2022-12-18T03:37:10;97839.00;;;1.00
56286;BMP180;42191;47.562;9.686;2022-12-18T03:39:36;97826.00;;;1.00
56286;BMP180;42191;47.562;9.686;2022-12-18T03:47:30;97824.00;;;1.00
56286;BMP180;42191;47.562;9.686;2022-12-18T03:50:23;97819.00;;;1.00
56286;BMP180;42191;47.562;9.686;2022-12-18T03:52:56;97832.00;;;1.00
56286;BMP180;42191;47.562;9.686;2022-12-18T03:55:25;97826.00;;;1.00
56286;BMP180;42191;47.562;9.686;2022-12-18T03:57:54;97843.00;;;1.00
56286;BMP180;42191;47.562;9.686;2022-12-18T04:00:21;97838.00;;;1.00
56286;BMP180;42191;47.562;9.686;2022-12-18T04:02:52;97846.00;;;1.10
56286;BMP180;42191;47.562;9.686;2022-12-18T04:05:20;97847.00;;;1.00
56286;BMP180;42191;47.562;9.686;2022-12-18T04:07:48;97854.00;;;1.00
56286;BMP180;42191;47.562;9.686;2022-12-18T04:10:16;97833.00;;;1.00
56286;BMP180;42191;47.562;9.686;2022-12-18T04:12:42;97855.00;;;1.00
56286;BMP180;42191;47.562;9.686;2022-12-18T04:15:09;97857.00;;;1.00
56286;BMP180;42191;47.562;9.686;2022-12-18T04:17:36;97850.00;;;1.00
56286;BMP180;42191;47.562;9.686;2022-12-18T04:20:02;97873.00;;;1.00
56286;BMP180;42191;47.562;9.686;2022-12-18T04:22:28;97871.00;;;1.00
56286;BMP180;42191;47.562;9.686;2022-12-18T04:24:54;97861.00;;;1.00
56286;BMP180;42191;47.562;9.686;2022-12-18T04:27:20;97865.00;;;1.00
56286;BMP180;42191;47.562;9.686;2022-12-18T04:29:47;97861.00;;;1.00
56286;BMP180;42191;47.562;9.686;2022-12-18T04:32:13;97874.00;;;1.00
56286;BMP180;42191;47.562;9.686;2022-12-18T04:34:39;97859.00;;;1.00
56286;BMP180;42191;47.562;9.686;2022-12-18T04:37:05;97863.00;;;1.00
56286;BMP180;42191;47.562;9.686;2022-12-18T04:39:31;97874.00;;;1.00
56286;BMP180;42191;47.562;9.686;2022-12-18T04:41:57;97869.00;;;1.00
56286;BMP180;42191;47.562;9.686;2022-12-18T04:44:23;97885.00;;;1.00
56286;BMP180;42191;47.562;9.686;2022-12-18T04:46:49;97877.00;;;1.00
56286;BMP180;42191;47.562;9.686;2022-12-18T04:49:15;97876.00;;;1.00
56286;BMP180;42191;47.562;9.686;2022-12-18T04:51:42;97881.00;;;1.00
56286;BMP180;42191;47.562;9.686;2022-12-18T04:54:08;97872.00;;;1.00
56286;BMP180;42191;47.562;9.686;2022-12-18T04:56:34;97871.00;;;1.00
56286;BMP180;42191;47.562;9.686;2022-12-18T04:59:00;97881.00;;;1.00
56286;BMP180;42191;47.562;9.686;2022-12-18T05:01:26;97871.00;;;0.90
56286;BMP180;42191;47.562;9.686;2022-12-18T05:03:52;97884.00;;;0.90
56286;BMP180;42191;47.562;9.686;2022-12-18T05:06:18;97897.00;;;0.90
56286;BMP180;42191;47.562;9.686;2022-12-18T05:08:44;97896.00;;;0.90
56286;BMP180;42191;47.562;9.686;2022-12-18T05:11:13;97900.00;;;0.90
56286;BMP180;42191;47.562;9.686;2022-12-18T05:13:43;97893.00;;;0.90
56286;BMP180;42191;47.562;9.686;2022-12-18T05:16:10;97897.00;;;0.90
56286;BMP180;42191;47.562;9.686;2022-12-18T05:18:36;97888.00;;;0.90
56286;BMP180;42191;47.562;9.686;2022-12-18T05:21:03;97905.00;;;0.90
56286;BMP180;42191;47.562;9.686;2022-12-18T05:23:29;97898.00;;;0.90
56286;BMP180;42191;47.562;9.686;2022-12-18T05:25:58;97904.00;;;0.90
56286;BMP180;42191;47.562;9.686;2022-12-18T05:28:27;97897.00;;;0.90
56286;BMP180;42191;47.562;9.686;2022-12-18T05:30:55;97908.00;;;1.00
56286;BMP180;42191;47.562;9.686;2022-12-18T05:33:23;97914.00;;;0.90
56286;BMP180;42191;47.562;9.686;2022-12-18T05:35:53;97911.00;;;0.90
56286;BMP180;42191;47.562;9.686;2022-12-18T05:38:21;97906.00;;;1.00
56286;BMP180;42191;47.562;9.686;2022-12-18T05:40:51;97900.00;;;0.90
56286;BMP180;42191;47.562;9.686;2022-12-18T05:43:18;97907.00;;;0.90
56286;BMP180;42191;47.562;9.686;2022-12-18T05:45:45;97919.00;;;0.90
56286;BMP180;42191;47.562;9.686;2022-12-18T05:48:12;97924.00;;;0.90
56286;BMP180;42191;47.562;9.686;2022-12-18T05:50:39;97911.00;;;0.90
56286;BMP180;42191;47.562;9.686;2022-12-18T05:53:05;97925.00;;;0.90
56286;BMP180;42191;47.562;9.686;2022-12-18T05:55:36;97927.00;;;0.90
56286;BMP180;42191;47.562;9.686;2022-12-18T05:58:04;97925.00;;;0.90
56286;BMP180;42191;47.562;9.686;2022-12-18T06:00:32;97930.00;;;0.90
56286;BMP180;42191;47.562;9.686;2022-12-18T06:02:59;97931.00;;;0.90
56286;BMP180;42191;47.562;9.686;2022-12-18T06:05:26;97920.00;;;0.90
56286;BMP180;42191;47.562;9.686;2022-12-18T06:07:52;97925.00;;;0.90
56286;BMP180;42191;47.562;9.686;2022-12-18T06:10:18;97928.00;;;0.80
56286;BMP180;42191;47.562;9.686;2022-12-18T06:12:44;97928.00;;;0.80
56286;BMP180;42191;47.562;9.686;2022-12-18T06:15:11;97927.00;;;0.80
56286;BMP180;42191;47.562;9.686;2022-12-18T06:17:37;97934.00;;;0.80
56286;BMP180;42191;47.562;9.686;2022-12-18T06:20:04;97942.00;;;0.80
56286;BMP180;42191;47.562;9.686;2022-12-18T06:22:32;97934.00;;;0.80
56286;BMP180;42191;47.562;9.686;2022-12-18T06:24:58;97932.00;;;0.80
56286;BMP180;42191;47.562;9.686;2022-12-18T06:27:25;97928.00;;;0.80
56286;BMP180;42191;47.562;9.686;2022-12-18T06:29:51;97931.00;;;0.80
56286;BMP180;42191;47.562;9.686;2022-12-18T06:32:17;97923.00;;;0.90
56286;BMP180;42191;47.562;9.686;2022-12-18T06:34:43;97928.00;;;0.80
56286;BMP180;42191;47.562;9.686;2022-12-18T06:37:09;97940.00;;;0.80
56286;BMP180;42191;47.562;9.686;2022-12-18T06:39:36;97931.00;;;0.90
56286;BMP180;42191;47.562;9.686;2022-12-18T06:42:02;97933.00;;;0.80
56286;BMP180;42191;47.562;9.686;2022-12-18T06:44:29;97938.00;;;0.90
56286;BMP180;42191;47.562;9.686;2022-12-18T06:46:55;97934.00;;;0.90
56286;BMP180;42191;47.562;9.686;2022-12-18T06:49:21;97936.00;;;0.90
56286;BMP180;42191;47.562;9.686;2022-12-18T06:51:47;97938.00;;;0.90
56286;BMP180;42191;47.562;9.686;2022-12-18T06:54:13;97944.00;;;0.90
56286;BMP180;42191;47.562;9.686;2022-12-18T06:56:39;97939.00;;;0.90
56286;BMP180;42191;47.562;9.686;2022-12-18T06:59:05;97945.00;;;0.90
56286;BMP180;42191;47.562;9.686;2022-12-18T07:01:32;97949.00;;;0.90
56286;BMP180;42191;47.562;9.686;2022-12-18T07:03:58;97956.00;;;0.90
56286;BMP180;42191;47.562;9.686;2022-12-18T07:06:25;97954.00;;;0.90
56286;BMP180;42191;47.562;9.686;2022-12-18T07:08:53;97957.00;;;0.90
56286;BMP180;42191;47.562;9.686;2022-12-18T07:11:19;97956.00;;;0.90
56286;BMP180;42191;47.562;9.686;2022-12-18T07:13:46;97974.00;;;0.90
56286;BMP180;42191;47.562;9.686;2022-12-18T07:16:20;97971.00;;;0.90
56286;BMP180;42191;47.562;9.686;2022-12-18T07:18:46;97980.00;;;0.90
56286;BMP180;42191;47.562;9.686;2022-12-18T07:21:16;97987.00;;;1.00
56286;BMP180;42191;47.562;9.686;2022-12-18T07:23:42;97977.00;;;1.00
56286;BMP180;42191;47.562;9.686;2022-12-18T07:26:12;97985.00;;;1.00
56286;BMP180;42191;47.562;9.686;2022-12-18T07:28:40;97993.00;;;1.00
56286;BMP180;42191;47.562;9.686;2022-12-18T07:31:08;98000.00;;;1.00
56286;BMP180;42191;47.562;9.686;2022-12-18T07:33:35;97983.00;;;1.10
56286;BMP180;42191;47.562;9.686;2022-12-18T07:36:02;97988.00;;;1.10
56286;BMP180;42191;47.562;9.686;2022-12-18T07:38:29;97988.00;;;1.10
56286;BMP180;42191;47.562;9.686;2022-12-18T07:41:01;97995.00;;;1.10
56286;BMP180;42191;47.562;9.686;2022-12-18T07:43:27;98009.00;;;1.20
56286;BMP180;42191;47.562;9.686;2022-12-18T07:45:54;98012.00;;;1.20
56286;BMP180;42191;47.562;9.686;2022-12-18T07:48:20;98015.00;;;1.20
56286;BMP180;42191;47.562;9.686;2022-12-18T07:50:46;98014.00;;;1.30
56286;BMP180;42191;47.562;9.686;2022-12-18T07:53:12;98025.00;;;1.30
56286;BMP180;42191;47.562;9.686;2022-12-18T07:55:40;98014.00;;;1.30
56286;BMP180;42191;47.562;9.686;2022-12-18T07:58:07;98016.00;;;1.40
56286;BMP180;42191;47.562;9.686;2022-12-18T08:00:34;98009.00;;;1.40
56286;BMP180;42191;47.562;9.686;2022-12-18T08:03:00;98025.00;;;1.50
56286;BMP180;42191;47.562;9.686;2022-12-18T08:05:27;98032.00;;;1.50
56286;BMP180;42191;47.562;9.686;2022-12-18T08:07:53;98024.00;;;1.60
56286;BMP180;42191;47.562;9.686;2022-12-18T08:10:20;98013.00;;;1.60
56286;BMP180;42191;47.562;9.686;2022-12-18T08:12:50;98023.00;;;1.60
56286;BMP180;42191;47.562;9.686;2022-12-18T08:15:17;98033.00;;;1.70
56286;BMP180;42191;47.562;9.686;2022-12-18T08:17:43;98010.00;;;1.80
56286;BMP180;42191;47.562;9.686;2022-12-18T08:20:09;98006.00;;;1.80
56286;BMP180;42191;47.562;9.686;2022-12-18T08:22:35;98031.00;;;1.90
56286;BMP180;42191;47.562;9.686;2022-12-18T08:25:03;98014.00;;;2.00
56286;BMP180;42191;47.562;9.686;2022-12-18T08:27:29;98018.00;;;2.00
56286;BMP180;42191;47.562;9.686;2022-12-18T08:29:56;98014.00;;;2.10
56286;BMP180;42191;47.562;9.686;2022-12-18T08:32:22;98016.00;;;2.10
56286;BMP180;42191;47.562;9.686;2022-12-18T08:34:48;98016.00;;;2.20
56286;BMP180;42191;47.562;9.686;2022-12-18T08:37:15;98018.00;;;2.30
56286;BMP180;42191;47.562;9.686;2022-12-18T08:39:41;98011.00;;;2.40
56286;BMP180;42191;47.562;9.686;2022-12-18T08:42:07;98008.00;;;2.40
56286;BMP180;42191;47.562;9.686;2022-12-18T08:44:51;98017.00;;;2.50
56286;BMP180;42191;47.562;9.686;2022-12-18T08:47:17;98016.00;;;2.60
56286;BMP180;42191;47.562;9.686;2022-12-18T08:49:43;98017.00;;;2.60
56286;BMP180;42191;47.562;9.686;2022-12-18T08:52:10;98012.00;;;2.70
56286;BMP180;42191;47.562;9.686;2022-12-18T08:54:36;98021.00;;;2.70
56286;BMP180;42191;47.562;9.686;2022-12-18T08:57:03;98024.00;;;2.80
56286;BMP180;42191;47.562;9.686;2022-12-18T08:59:29;98017.00;;;2.80
56286;BMP180;42191;47.562;9.686;2022-12-18T09:01:56;98037.00;;;2.90
56286;BMP180;42191;47.562;9.686;2022-12-18T09:04:22;98033.00;;;3.00
56286;BMP180;42191;47.562;9.686;2022-12-18T09:06:48;98029.00;;;3.00
56286;BMP180;42191;47.562;9.686;2022-12-18T09:09:14;98038.00;;;3.10
56286;BMP180;42191;47.562;9.686;2022-12-18T09:11:40;98034.00;;;3.20
56286;BMP180;42191;47.562;9.686;2022-12-18T09:14:08;98042.00;;;3.20
56286;BMP180;42191;47.562;9.686;2022-12-18T09:16:35;98055.00;;;3.20
56286;BMP180;42191;47.562;9.686;2022-12-18T09:19:02;98040.00;;;3.30
56286;BMP180;42191;47.562;9.686;2022-12-18T09:21:31;98038.00;;;3.40
56286;BMP180;42191;47.562;9.686;2022-12-18T09:23:58;98041.00;;;3.40
56286;BMP180;42191;47.562;9.686;2022-12-18T09:26:25;98031.00;;;3.50
56286;BMP180;42191;47.562;9.686;2022-12-18T09:28:51;98022.00;;;3.50
56286;BMP180;42191;47.562;9.686;2022-12-18T09:31:20;98028.00;;;3.60
56286;BMP180;42191;47.562;9.686;2022-12-18T09:33:46;98024.00;;;3.70
56286;BMP180;42191;47.562;9.686;2022-12-18T09:36:14;98012.00;;;3.80
56286;BMP180;42191;47.562;9.686;2022-12-18T09:38:41;98006.00;;;3.90
56286;BMP180;42191;47.562;9.686;2022-12-18T09:41:16;98009.00;;;3.90
56286;BMP180;42191;47.562;9.686;2022-12-18T09:43:50;98007.00;;;4.00
56286;BMP180;42191;47.562;9.686;2022-12-18T09:46:28;98008.00;;;4.10
56286;BMP180;42191;47.562;9.686;2022-12-18T09:49:00;98026.00;;;4.20
56286;BMP180;42191;47.562;9.686;2022-12-18T09:51:35;98026.00;;;4.30
56286;BMP180;42191;47.562;9.686;2022-12-18T09:54:05;98023.00;;;4.40
56286;BMP180;42191;47.562;9.686;2022-12-18T09:56:36;98012.00;;;4.40
56286;BMP180;42191;47.562;9.686;2022-12-18T09:59:05;98010.00;;;4.50
56286;BMP180;42191;47.562;9.686;2022-12-18T10:01:33;98006.00;;;4.60
56286;BMP180;42191;47.562;9.686;2022-12-18T10:04:00;98008.00;;;4.60
56286;BMP180;42191;47.562;9.686;2022-12-18T10:06:36;98010.00;;;4.70
56286;BMP180;42191;47.562;9.686;2022-12-18T10:12:19;98024.00;;;4.70
56286;BMP180;42191;47.562;9.686;2022-12-18T10:20:09;98021.00;;;4.90
56286;BMP180;42191;47.562;9.686;2022-12-18T10:22:42;98011.00;;;5.00
56286;BMP180;42191;47.562;9.686;2022-12-18T10:25:29;98008.00;;;5.00
56286;BMP180;42191;47.562;9.686;2022-12-18T10:28:07;98004.00;;;5.10
56286;BMP180;42191;47.562;9.686;2022-12-18T10:30:34;98002.00;;;5.20
56286;BMP180;42191;47.562;9.686;2022-12-18T10:33:02;97999.00;;;5.20
56286;BMP180;42191;47.562;9.686;2022-12-18T10:35:28;98015.00;;;5.30
56286;BMP180;42191;47.562;9.686;2022-12-18T10:41:00;98010.00;;;5.50
56286;BMP180;42191;47.562;9.686;2022-12-18T10:46:14;98018.00;;;5.60
56286;BMP180;42191;47.562;9.686;2022-12-18T10:48:51;98007.00;;;5.70
56286;BMP180;42191;47.562;9.686;2022-12-18T10:51:25;98023.00;;;5.70
56286;BMP180;42191;47.562;9.686;2022-12-18T10:53:55;98022.00;;;5.70
56286;BMP180;42191;47.562;9.686;2022-12-18T10:56:24;98024.00;;;5.70
56286;BMP180;42191;47.562;9.686;2022-12-18T10:59:06;98026.00;;;5.70
56286;BMP180;42191;47.562;9.686;2022-12-18T11:04:18;98015.00;;;5.80
56286;BMP180;42191;47.562;9.686;2022-12-18T11:06:59;98027.00;;;5.80
56286;BMP180;42191;47.562;9.686;2022-12-18T11:09:37;98030.00;;;5.80
56286;BMP180;42191;47.562;9.686;2022-12-18T11:14:52;98029.00;;;5.90
56286;BMP180;42191;47.562;9.686;2022-12-18T11:17:32;98028.00;;;6.00
56286;BMP180;42191;47.562;9.686;2022-12-18T11:22:56;98026.00;;;6.10
56286;BMP180;42191;47.562;9.686;2022-12-18T11:25:23;98026.00;;;6.20
56286;BMP180;42191;47.562;9.686;2022-12-18T11:27:56;98022.00;;;6.20
56286;BMP180;42191;47.562;9.686;2022-12-18T11:30:37;98024.00;;;6.30
56286;BMP180;42191;47.562;9.686;2022-12-18T11:38:29;98017.00;;;6.30
56286;BMP180;42191;47.562;9.686;2022-12-18T11:43:54;98026.00;;;6.30
56286;BMP180;42191;47.562;9.686;2022-12-18T11:46:36;98030.00;;;6.30
56286;BMP180;42191;47.562;9.686;2022-12-18T11:49:11;98030.00;;;6.40
56286;BMP180;42191;47.562;9.686;2022-12-18T11:52:14;98012.00;;;6.40
56286;BMP180;42191;47.562;9.686;2022-12-18T11:54:41;98003.00;;;6.50
56286;BMP180;42191;47.562;9.686;2022-12-18T12:00:07;97998.00;;;6.50
56286;BMP180;42191;47.562;9.686;2022-12-18T12:08:24;97988.00;;;6.50
56286;BMP180;42191;47.562;9.686;2022-12-18T12:19:43;97981.00;;;6.60
56286;BMP180;42191;47.562;9.686;2022-12-18T12:25:27;97970.00;;;6.60
56286;BMP180;42191;47.562;9.686;2022-12-18T12:33:51;97960.00;;;6.50
56286;BMP180;42191;47.562;9.686;2022-12-18T12:37:00;97974.00;;;6.50
56286;BMP180;42191;47.562;9.686;2022-12-18T12:39:22;97959.00;;;6.50
56286;BMP180;42191;47.562;9.686;2022-12-18T12:41:58;97959.00;;;6.50
56286;BMP180;42191;47.562;9.686;2022-12-18T12:44:46;97961.00;;;6.40
56286;BMP180;42191;47.562;9.686;2022-12-18T12:47:17;97955.00;;;6.40
56286;BMP180;42191;47.562;9.686;2022-12-18T12:49:46;97952.00;;;6.40
56286;BMP180;42191;47.562;9.686;2022-12-18T12:52:34;97939.00;;;6.40
56286;BMP180;42191;47.562;9.686;2022-12-18T12:55:03;97944.00;;;6.40
56286;BMP180;42191;47.562;9.686;2022-12-18T13:00:30;97945.00;;;6.60
56286;BMP180;42191;47.562;9.686;2022-12-18T13:05:58;97938.00;;;6.70
56286;BMP180;42191;47.562;9.686;2022-12-18T13:08:29;97943.00;;;6.80
56286;BMP180;42191;47.562;9.686;2022-12-18T13:10:59;97954.00;;;6.80
56286;BMP180;42191;47.562;9.686;2022-12-18T13:13:55;97951.00;;;6.80
56286;BMP180;42191;47.562;9.686;2022-12-18T13:16:23;97934.00;;;6.80
56286;BMP180;42191;47.562;9.686;2022-12-18T13:18:52;97933.00;;;6.80
56286;BMP180;42191;47.562;9.686;2022-12-18T13:21:30;97932.00;;;6.80
56286;BMP180;42191;47.562;9.686;2022-12-18T13:24:15;97937.00;;;6.80
56286;BMP180;42191;47.562;9.686;2022-12-18T13:26:47;97941.00;;;6.80
56286;BMP180;42191;47.562;9.686;2022-12-18T13:29:44;97954.00;;;6.80
56286;BMP180;42191;47.562;9.686;2022-12-18T13:32:22;97948.00;;;6.80
56286;BMP180;42191;47.562;9.686;2022-12-18T13:34:48;97959.00;;;6.80
56286;BMP180;42191;47.562;9.686;2022-12-18T13:37:39;97947.00;;;6.80
56286;BMP180;42191;47.562;9.686;2022-12-18T13:45:58;97964.00;;;6.60
56286;BMP180;42191;47.562;9.686;2022-12-18T13:48:27;97959.00;;;6.50
56286;BMP180;42191;47.562;9.686;2022-12-18T13:51:19;97968.00;;;6.50
56286;BMP180;42191;47.562;9.686;2022-12-18T13:53:48;97960.00;;;6.40
56286;BMP180;42191;47.562;9.686;2022-12-18T13:56:24;97974.00;;;6.40
56286;BMP180;42191;47.562;9.686;2022-12-18T13:59:11;97966.00;;;6.30
56286;BMP180;42191;47.562;9.686;2022-12-18T14:01:46;97970.00;;;6.30
56286;BMP180;42191;47.562;9.686;2022-12-18T14:04:22;97965.00;;;6.20
56286;BMP180;42191;47.562;9.686;2022-12-18T14:06:52;97960.00;;;6.20
56286;BMP180;42191;47.562;9.686;2022-12-18T14:09:25;97963.00;;;6.10
56286;BMP180;42191;47.562;9.686;2022-12-18T14:11:51;97952.00;;;5.90
56286;BMP180;42191;47.562;9.686;2022-12-18T14:14:18;97957.00;;;5.80
56286;BMP180;42191;47.562;9.686;2022-12-18T14:16:46;97968.00;;;5.70
56286;BMP180;42191;47.562;9.686;2022-12-18T14:19:15;97969.00;;;5.70
56286;BMP180;42191;47.562;9.686;2022-12-18T14:21:49;97965.00;;;5.60
56286;BMP180;42191;47.562;9.686;2022-12-18T14:24:21;97963.00;;;5.60
56286;BMP180;42191;47.562;9.686;2022-12-18T14:26:49;97963.00;;;5.60
56286;BMP180;42191;47.562;9.686;2022-12-18T14:29:29;97968.00;;;5.60
56286;BMP180;42191;47.562;9.686;2022-12-18T14:34:34;97977.00;;;5.40
56286;BMP180;42191;47.562;9.686;2022-12-18T14:37:00;97974.00;;;5.20
56286;BMP180;42191;47.562;9.686;2022-12-18T14:39:26;97975.00;;;5.20
56286;BMP180;42191;47.562;9.686;2022-12-18T14:41:52;97982.00;;;5.20
56286;BMP180;42191;47.562;9.686;2022-12-18T14:44:19;97971.00;;;5.10
56286;BMP180;42191;47.562;9.686;2022-12-18T14:46:48;97980.00;;;5.10
56286;BMP180;42191;47.562;9.686;2022-12-18T14:49:31;97971.00;;;5.10
56286;BMP180;42191;47.562;9.686;2022-12-18T14:52:05;97967.00;;;5.10
56286;BMP180;42191;47.562;9.686;2022-12-18T14:54:33;97961.00;;;5.00
56286;BMP180;42191;47.562;9.686;2022-12-18T14:57:13;97974.00;;;5.00
56286;BMP180;42191;47.562;9.686;2022-12-18T14:59:41;97973.00;;;5.00
56286;BMP180;42191;47.562;9.686;2022-12-18T15:02:26;97970.00;;;4.90
56286;BMP180;42191;47.562;9.686;2022-12-18T15:07:38;97986.00;;;4.50
56286;BMP180;42191;47.562;9.686;2022-12-18T15:12:45;97973.00;;;4.20
56286;BMP180;42191;47.562;9.686;2022-12-18T15:18:03;97973.00;;;3.90
56286;BMP180;42191;47.562;9.686;2022-12-18T15:23:16;97979.00;;;3.70
56286;BMP180;42191;47.562;9.686;2022-12-18T15:25:43;97980.00;;;3.60
56286;BMP180;42191;47.562;9.686;2022-12-18T15:28:31;97982.00;;;3.60
56286;BMP180;42191;47.562;9.686;2022-12-18T15:31:00;97984.00;;;3.50
56286;BMP180;42191;47.562;9.686;2022-12-18T15:33:35;98001.00;;;3.50
56286;BMP180;42191;47.562;9.686;2022-12-18T15:36:04;97989.00;;;3.50
56286;BMP180;42191;47.562;9.686;2022-12-18T15:38:30;97991.00;;;3.40
56286;BMP180;42191;47.562;9.686;2022-12-18T15:40:57;97992.00;;;3.40
56286;BMP180;42191;47.562;9.686;2022-12-18T15:43:24;97997.00;;;3.40
56286;BMP180;42191;47.562;9.686;2022-12-18T15:46:23;98006.00;;;3.30
56286;BMP180;42191;47.562;9.686;2022-12-18T15:48:51;98001.00;;;3.30
56286;BMP180;42191;47.562;9.686;2022-12-18T15:51:21;98006.00;;;3.20
56286;BMP180;42191;47.562;9.686;2022-12-18T15:53:50;97998.00;;;3.10
56286;BMP180;42191;47.562;9.686;2022-12-18T15:56:17;97994.00;;;3.10
56286;BMP180;42191;47.562;9.686;2022-12-18T15:59:04;97987.00;;;3.10
56286;BMP180;42191;47.562;9.686;2022-12-18T16:01:31;97984.00;;;3.10
56286;BMP180;42191;47.562;9.686;2022-12-18T16:03:57;97982.00;;;3.10
56286;BMP180;42191;47.562;9.686;2022-12-18T16:06:23;97974.00;;;3.10
56286;BMP180;42191;47.562;9.686;2022-12-18T16:08:50;97977.00;;;3.10
56286;BMP180;42191;47.562;9.686;2022-12-18T16:11:24;97984.00;;;3.10
56286;BMP180;42191;47.562;9.686;2022-12-18T16:14:22;97986.00;;;3.10
56286;BMP180;42191;47.562;9.686;2022-12-18T16:16:53;97975.00;;;3.10
56286;BMP180;42191;47.562;9.686;2022-12-18T16:19:20;97975.00;;;3.10
56286;BMP180;42191;47.562;9.686;2022-12-18T16:21:48;97972.00;;;3.00
56286;BMP180;42191;47.562;9.686;2022-12-18T16:24:22;97967.00;;;3.00
56286;BMP180;42191;47.562;9.686;2022-12-18T16:26:49;97960.00;;;2.90